sensor_id;sensor_type;location;lat;lon;timestamp;P1;durP1;ratioP1;P2;durP2;ratioP2
12601;SDS011;30282;16.436;99.370;2023-03-01T00:02:07;332.53;;;234.67;;
12601;SDS011;30282;16.436;99.370;2023-03-01T00:04:42;329.27;;;239.17;;
12601;SDS011;30282;16.436;99.370;2023-03-01T00:07:12;335.77;;;248.37;;
12601;SDS011;30282;16.436;99.370;2023-03-01T00:09:41;327.23;;;239.93;;
12601;SDS011;30282;16.436;99.370;2023-03-01T00:12:11;350.67;;;252.23;;
12601;SDS011;30282;16.436;99.370;2023-03-01T00:14:40;323.80;;;243.27;;
12601;SDS011;30282;16.436;99.370;2023-03-01T00:17:15;330.30;;;243.83;;
12601;SDS011;30282;16.436;99.370;2023-03-01T00:19:55;324.03;;;247.70;;
12601;SDS011;30282;16.436;99.370;2023-03-01T00:22:27;338.73;;;255.43;;
12601;SDS011;30282;16.436;99.370;2023-03-01T00:24:56;337.30;;;259.37;;
12601;SDS011;30282;16.436;99.370;2023-03-01T00:27:26;353.67;;;254.97;;
12601;SDS011;30282;16.436;99.370;2023-03-01T00:29:55;344.60;;;259.33;;
12601;SDS011;30282;16.436;99.370;2023-03-01T00:32:26;370.93;;;264.67;;
12601;SDS011;30282;16.436;99.370;2023-03-01T00:34:55;362.20;;;263.57;;
12601;SDS011;30282;16.436;99.370;2023-03-01T00:37:27;357.17;;;264.13;;
12601;SDS011;30282;16.436;99.370;2023-03-01T00:39:57;351.93;;;261.60;;
12601;SDS011;30282;16.436;99.370;2023-03-01T00:42:26;374.63;;;269.30;;
12601;SDS011;30282;16.436;99.370;2023-03-01T00:44:57;388.93;;;279.50;;
12601;SDS011;30282;16.436;99.370;2023-03-01T00:47:30;380.83;;;275.90;;
12601;SDS011;30282;16.436;99.370;2023-03-01T00:49:59;371.77;;;273.07;;
12601;SDS011;30282;16.436;99.370;2023-03-01T00:52:28;393.27;;;286.97;;
12601;SDS011;30282;16.436;99.370;2023-03-01T00:54:57;385.77;;;275.57;;
12601;SDS011;30282;16.436;99.370;2023-03-01T00:57:26;379.43;;;280.97;;
12601;SDS011;30282;16.436;99.370;2023-03-01T00:59:55;390.10;;;287.70;;
12601;SDS011;30282;16.436;99.370;2023-03-01T01:02:24;388.20;;;284.30;;
12601;SDS011;30282;16.436;99.370;2023-03-01T01:04:55;378.27;;;274.47;;
12601;SDS011;30282;16.436;99.370;2023-03-01T01:07:24;387.03;;;275.10;;
12601;SDS011;30282;16.436;99.370;2023-03-01T01:09:53;364.97;;;266.67;;
12601;SDS011;30282;16.436;99.370;2023-03-01T01:12:23;378.73;;;271.50;;
12601;SDS011;30282;16.436;99.370;2023-03-01T01:14:52;355.73;;;258.67;;
12601;SDS011;30282;16.436;99.370;2023-03-01T01:17:21;358.80;;;265.17;;
12601;SDS011;30282;16.436;99.370;2023-03-01T01:19:50;334.33;;;250.63;;
12601;SDS011;30282;16.436;99.370;2023-03-01T01:22:21;353.50;;;260.43;;
12601;SDS011;30282;16.436;99.370;2023-03-01T01:24:50;335.03;;;255.27;;
12601;SDS011;30282;16.436;99.370;2023-03-01T01:27:19;330.27;;;249.40;;
12601;SDS011;30282;16.436;99.370;2023-03-01T01:29:47;349.27;;;247.50;;
12601;SDS011;30282;16.436;99.370;2023-03-01T01:32:16;328.13;;;235.77;;
12601;SDS011;30282;16.436;99.370;2023-03-01T01:34:45;313.60;;;236.00;;
12601;SDS011;30282;16.436;99.370;2023-03-01T01:37:14;299.87;;;218.30;;
12601;SDS011;30282;16.436;99.370;2023-03-01T01:39:45;300.27;;;219.53;;
12601;SDS011;30282;16.436;99.370;2023-03-01T01:42:14;272.40;;;203.23;;
12601;SDS011;30282;16.436;99.370;2023-03-01T01:44:45;261.10;;;176.50;;
12601;SDS011;30282;16.436;99.370;2023-03-01T01:47:14;232.90;;;171.23;;
12601;SDS011;30282;16.436;99.370;2023-03-01T01:49:46;223.90;;;168.17;;
12601;SDS011;30282;16.436;99.370;2023-03-01T01:52:17;244.87;;;173.17;;
12601;SDS011;30282;16.436;99.370;2023-03-01T01:54:55;240.93;;;171.50;;
12601;SDS011;30282;16.436;99.370;2023-03-01T01:57:29;218.83;;;162.10;;
12601;SDS011;30282;16.436;99.370;2023-03-01T02:00:04;235.20;;;170.77;;
12601;SDS011;30282;16.436;99.370;2023-03-01T02:02:35;249.87;;;170.73;;
12601;SDS011;30282;16.436;99.370;2023-03-01T02:05:08;253.73;;;185.23;;
12601;SDS011;30282;16.436;99.370;2023-03-01T02:07:42;258.53;;;186.37;;
12601;SDS011;30282;16.436;99.370;2023-03-01T02:10:13;267.37;;;187.53;;
12601;SDS011;30282;16.436;99.370;2023-03-01T02:12:43;252.87;;;188.87;;
12601;SDS011;30282;16.436;99.370;2023-03-01T02:15:13;252.27;;;179.43;;
12601;SDS011;30282;16.436;99.370;2023-03-01T02:17:41;281.03;;;194.30;;
12601;SDS011;30282;16.436;99.370;2023-03-01T02:20:12;275.00;;;197.07;;
12601;SDS011;30282;16.436;99.370;2023-03-01T02:22:47;262.27;;;193.43;;
12601;SDS011;30282;16.436;99.370;2023-03-01T02:25:24;250.40;;;188.67;;
12601;SDS011;30282;16.436;99.370;2023-03-01T02:27:57;253.03;;;185.60;;
12601;SDS011;30282;16.436;99.370;2023-03-01T02:30:35;276.70;;;196.93;;
12601;SDS011;30282;16.436;99.370;2023-03-01T02:33:24;254.27;;;183.70;;
12601;SDS011;30282;16.436;99.370;2023-03-01T02:35:53;268.37;;;188.43;;
12601;SDS011;30282;16.436;99.370;2023-03-01T02:38:23;259.20;;;179.80;;
12601;SDS011;30282;16.436;99.370;2023-03-01T02:40:53;257.23;;;187.50;;
12601;SDS011;30282;16.436;99.370;2023-03-01T02:43:25;245.23;;;176.50;;
12601;SDS011;30282;16.436;99.370;2023-03-01T02:46:04;238.23;;;179.37;;
12601;SDS011;30282;16.436;99.370;2023-03-01T02:48:41;250.50;;;184.70;;
12601;SDS011;30282;16.436;99.370;2023-03-01T02:51:15;232.87;;;177.27;;
12601;SDS011;30282;16.436;99.370;2023-03-01T02:53:56;240.23;;;167.90;;
12601;SDS011;30282;16.436;99.370;2023-03-01T02:56:34;221.10;;;166.80;;
12601;SDS011;30282;16.436;99.370;2023-03-01T02:59:04;229.97;;;173.13;;
12601;SDS011;30282;16.436;99.370;2023-03-01T03:01:34;235.10;;;170.63;;
12601;SDS011;30282;16.436;99.370;2023-03-01T03:04:04;223.13;;;173.80;;
12601;SDS011;30282;16.436;99.370;2023-03-01T03:06:33;224.13;;;170.33;;
12601;SDS011;30282;16.436;99.370;2023-03-01T03:09:02;228.77;;;174.90;;
12601;SDS011;30282;16.436;99.370;2023-03-01T03:11:33;224.70;;;169.50;;
12601;SDS011;30282;16.436;99.370;2023-03-01T03:14:02;223.83;;;171.17;;
12601;SDS011;30282;16.436;99.370;2023-03-01T03:16:31;228.43;;;170.27;;
12601;SDS011;30282;16.436;99.370;2023-03-01T03:19:02;231.67;;;177.27;;
12601;SDS011;30282;16.436;99.370;2023-03-01T03:21:38;223.60;;;169.80;;
12601;SDS011;30282;16.436;99.370;2023-03-01T03:24:08;225.33;;;162.80;;
12601;SDS011;30282;16.436;99.370;2023-03-01T03:26:38;214.63;;;168.23;;
12601;SDS011;30282;16.436;99.370;2023-03-01T03:29:13;219.10;;;165.20;;
12601;SDS011;30282;16.436;99.370;2023-03-01T03:31:52;214.93;;;166.17;;
12601;SDS011;30282;16.436;99.370;2023-03-01T03:34:21;195.43;;;150.37;;
12601;SDS011;30282;16.436;99.370;2023-03-01T03:36:52;204.70;;;156.17;;
12601;SDS011;30282;16.436;99.370;2023-03-01T03:39:25;199.60;;;152.10;;
12601;SDS011;30282;16.436;99.370;2023-03-01T03:41:54;178.10;;;140.50;;
12601;SDS011;30282;16.436;99.370;2023-03-01T03:44:23;178.40;;;137.50;;
12601;SDS011;30282;16.436;99.370;2023-03-01T03:46:54;193.70;;;146.00;;
12601;SDS011;30282;16.436;99.370;2023-03-01T03:49:22;168.03;;;134.30;;
12601;SDS011;30282;16.436;99.370;2023-03-01T03:51:51;187.30;;;122.47;;
12601;SDS011;30282;16.436;99.370;2023-03-01T03:54:39;163.60;;;126.30;;
12601;SDS011;30282;16.436;99.370;2023-03-01T03:57:08;160.20;;;130.27;;
12601;SDS011;30282;16.436;99.370;2023-03-01T03:59:37;150.43;;;127.83;;
12601;SDS011;30282;16.436;99.370;2023-03-01T04:02:07;173.97;;;131.17;;
12601;SDS011;30282;16.436;99.370;2023-03-01T04:04:36;155.90;;;118.60;;
12601;SDS011;30282;16.436;99.370;2023-03-01T04:07:05;141.43;;;113.80;;
12601;SDS011;30282;16.436;99.370;2023-03-01T04:09:34;135.23;;;111.23;;
12601;SDS011;30282;16.436;99.370;2023-03-01T04:12:03;129.97;;;103.60;;
12601;SDS011;30282;16.436;99.370;2023-03-01T04:14:32;96.00;;;76.87;;
12601;SDS011;30282;16.436;99.370;2023-03-01T04:17:01;95.60;;;78.70;;
12601;SDS011;30282;16.436;99.370;2023-03-01T04:19:32;84.40;;;66.70;;
12601;SDS011;30282;16.436;99.370;2023-03-01T04:22:01;99.63;;;80.40;;
12601;SDS011;30282;16.436;99.370;2023-03-01T04:24:35;95.90;;;72.17;;
12601;SDS011;30282;16.436;99.370;2023-03-01T04:27:03;91.97;;;66.70;;
12601;SDS011;30282;16.436;99.370;2023-03-01T04:29:32;78.03;;;60.60;;
12601;SDS011;30282;16.436;99.370;2023-03-01T04:32:01;77.50;;;55.80;;
12601;SDS011;30282;16.436;99.370;2023-03-01T04:34:32;66.50;;;56.20;;
12601;SDS011;30282;16.436;99.370;2023-03-01T04:37:01;70.03;;;54.07;;
12601;SDS011;30282;16.436;99.370;2023-03-01T04:39:41;71.83;;;56.03;;
12601;SDS011;30282;16.436;99.370;2023-03-01T04:42:11;69.93;;;52.47;;
12601;SDS011;30282;16.436;99.370;2023-03-01T04:44:40;67.20;;;51.07;;
12601;SDS011;30282;16.436;99.370;2023-03-01T04:47:09;77.23;;;54.33;;
12601;SDS011;30282;16.436;99.370;2023-03-01T04:49:39;82.50;;;67.70;;
12601;SDS011;30282;16.436;99.370;2023-03-01T04:52:08;101.87;;;78.10;;
12601;SDS011;30282;16.436;99.370;2023-03-01T04:54:37;81.37;;;66.80;;
12601;SDS011;30282;16.436;99.370;2023-03-01T04:57:06;97.63;;;79.37;;
12601;SDS011;30282;16.436;99.370;2023-03-01T04:59:35;93.63;;;76.10;;
12601;SDS011;30282;16.436;99.370;2023-03-01T05:02:04;87.37;;;72.10;;
12601;SDS011;30282;16.436;99.370;2023-03-01T05:04:33;82.40;;;70.30;;
12601;SDS011;30282;16.436;99.370;2023-03-01T05:07:03;84.57;;;67.33;;
12601;SDS011;30282;16.436;99.370;2023-03-01T05:09:32;76.90;;;67.40;;
12601;SDS011;30282;16.436;99.370;2023-03-01T05:12:01;92.00;;;68.97;;
12601;SDS011;30282;16.436;99.370;2023-03-01T05:14:30;80.77;;;65.70;;
12601;SDS011;30282;16.436;99.370;2023-03-01T05:16:59;89.23;;;66.57;;
12601;SDS011;30282;16.436;99.370;2023-03-01T05:19:29;76.53;;;63.83;;
12601;SDS011;30282;16.436;99.370;2023-03-01T05:21:58;71.57;;;58.30;;
12601;SDS011;30282;16.436;99.370;2023-03-01T05:24:33;78.80;;;59.60;;
12601;SDS011;30282;16.436;99.370;2023-03-01T05:27:04;67.27;;;55.20;;
12601;SDS011;30282;16.436;99.370;2023-03-01T05:29:33;63.33;;;55.33;;
12601;SDS011;30282;16.436;99.370;2023-03-01T05:32:02;61.00;;;51.93;;
12601;SDS011;30282;16.436;99.370;2023-03-01T05:34:32;62.80;;;52.60;;
12601;SDS011;30282;16.436;99.370;2023-03-01T05:37:03;65.50;;;51.10;;
12601;SDS011;30282;16.436;99.370;2023-03-01T05:39:34;66.40;;;54.33;;
12601;SDS011;30282;16.436;99.370;2023-03-01T05:42:04;65.10;;;54.23;;
12601;SDS011;30282;16.436;99.370;2023-03-01T05:44:34;63.43;;;51.77;;
12601;SDS011;30282;16.436;99.370;2023-03-01T05:47:03;67.50;;;52.97;;
12601;SDS011;30282;16.436;99.370;2023-03-01T05:49:32;67.63;;;53.43;;
12601;SDS011;30282;16.436;99.370;2023-03-01T05:52:00;59.63;;;49.53;;
12601;SDS011;30282;16.436;99.370;2023-03-01T05:54:29;56.10;;;47.60;;
12601;SDS011;30282;16.436;99.370;2023-03-01T05:57:03;41.87;;;33.67;;
12601;SDS011;30282;16.436;99.370;2023-03-01T05:59:31;56.90;;;46.70;;
12601;SDS011;30282;16.436;99.370;2023-03-01T06:02:00;54.90;;;45.20;;
12601;SDS011;30282;16.436;99.370;2023-03-01T06:04:29;59.60;;;44.70;;
12601;SDS011;30282;16.436;99.370;2023-03-01T06:07:12;55.73;;;44.83;;
12601;SDS011;30282;16.436;99.370;2023-03-01T06:09:43;49.23;;;40.80;;
12601;SDS011;30282;16.436;99.370;2023-03-01T06:12:23;49.10;;;40.43;;
12601;SDS011;30282;16.436;99.370;2023-03-01T06:14:52;54.27;;;41.70;;
12601;SDS011;30282;16.436;99.370;2023-03-01T06:17:21;47.20;;;37.90;;
12601;SDS011;30282;16.436;99.370;2023-03-01T06:19:52;49.90;;;40.70;;
12601;SDS011;30282;16.436;99.370;2023-03-01T06:22:24;46.10;;;41.07;;
12601;SDS011;30282;16.436;99.370;2023-03-01T06:24:54;52.43;;;41.33;;
12601;SDS011;30282;16.436;99.370;2023-03-01T06:27:25;48.60;;;40.90;;
12601;SDS011;30282;16.436;99.370;2023-03-01T06:29:53;54.10;;;42.53;;
12601;SDS011;30282;16.436;99.370;2023-03-01T06:32:22;56.93;;;40.30;;
12601;SDS011;30282;16.436;99.370;2023-03-01T06:34:51;52.13;;;41.60;;
12601;SDS011;30282;16.436;99.370;2023-03-01T06:37:20;49.23;;;43.73;;
12601;SDS011;30282;16.436;99.370;2023-03-01T06:39:49;57.80;;;46.87;;
12601;SDS011;30282;16.436;99.370;2023-03-01T06:42:18;53.33;;;44.67;;
12601;SDS011;30282;16.436;99.370;2023-03-01T06:44:49;52.17;;;43.93;;
12601;SDS011;30282;16.436;99.370;2023-03-01T06:47:17;53.80;;;47.27;;
12601;SDS011;30282;16.436;99.370;2023-03-01T06:49:46;57.50;;;45.80;;
12601;SDS011;30282;16.436;99.370;2023-03-01T06:52:15;59.60;;;43.33;;
12601;SDS011;30282;16.436;99.370;2023-03-01T06:54:44;53.80;;;44.77;;
12601;SDS011;30282;16.436;99.370;2023-03-01T06:57:13;52.30;;;46.60;;
12601;SDS011;30282;16.436;99.370;2023-03-01T06:59:42;53.90;;;46.70;;
12601;SDS011;30282;16.436;99.370;2023-03-01T07:02:13;59.13;;;48.50;;
12601;SDS011;30282;16.436;99.370;2023-03-01T07:04:42;63.43;;;50.33;;
12601;SDS011;30282;16.436;99.370;2023-03-01T07:07:11;62.47;;;51.20;;
12601;SDS011;30282;16.436;99.370;2023-03-01T07:09:40;59.07;;;50.70;;
12601;SDS011;30282;16.436;99.370;2023-03-01T07:12:09;71.10;;;53.87;;
12601;SDS011;30282;16.436;99.370;2023-03-01T07:14:38;58.20;;;51.27;;
12601;SDS011;30282;16.436;99.370;2023-03-01T07:17:07;58.03;;;49.50;;
12601;SDS011;30282;16.436;99.370;2023-03-01T07:19:38;56.37;;;50.30;;
12601;SDS011;30282;16.436;99.370;2023-03-01T07:22:07;56.10;;;47.40;;
12601;SDS011;30282;16.436;99.370;2023-03-01T07:24:36;54.00;;;47.13;;
12601;SDS011;30282;16.436;99.370;2023-03-01T07:27:05;58.17;;;49.27;;
12601;SDS011;30282;16.436;99.370;2023-03-01T07:29:34;59.83;;;51.17;;
12601;SDS011;30282;16.436;99.370;2023-03-01T07:32:04;55.20;;;49.17;;
12601;SDS011;30282;16.436;99.370;2023-03-01T07:34:33;59.73;;;48.23;;
12601;SDS011;30282;16.436;99.370;2023-03-01T07:37:04;66.63;;;54.73;;
12601;SDS011;30282;16.436;99.370;2023-03-01T07:39:33;60.73;;;49.50;;
12601;SDS011;30282;16.436;99.370;2023-03-01T07:42:02;57.20;;;51.10;;
12601;SDS011;30282;16.436;99.370;2023-03-01T07:44:31;61.13;;;53.90;;
12601;SDS011;30282;16.436;99.370;2023-03-01T07:47:01;66.33;;;52.40;;
12601;SDS011;30282;16.436;99.370;2023-03-01T07:49:30;64.80;;;54.00;;
12601;SDS011;30282;16.436;99.370;2023-03-01T07:51:59;70.73;;;54.50;;
12601;SDS011;30282;16.436;99.370;2023-03-01T07:54:30;65.70;;;52.53;;
12601;SDS011;30282;16.436;99.370;2023-03-01T07:56:59;66.20;;;49.17;;
12601;SDS011;30282;16.436;99.370;2023-03-01T07:59:28;60.10;;;52.30;;
12601;SDS011;30282;16.436;99.370;2023-03-01T08:01:58;63.13;;;49.10;;
12601;SDS011;30282;16.436;99.370;2023-03-01T08:04:27;60.90;;;51.40;;
12601;SDS011;30282;16.436;99.370;2023-03-01T08:06:56;71.53;;;55.83;;
12601;SDS011;30282;16.436;99.370;2023-03-01T08:09:25;60.53;;;53.33;;
12601;SDS011;30282;16.436;99.370;2023-03-01T08:11:56;64.33;;;51.80;;
12601;SDS011;30282;16.436;99.370;2023-03-01T08:14:26;62.50;;;55.13;;
12601;SDS011;30282;16.436;99.370;2023-03-01T08:16:55;59.13;;;52.70;;
12601;SDS011;30282;16.436;99.370;2023-03-01T08:19:24;61.47;;;52.60;;
12601;SDS011;30282;16.436;99.370;2023-03-01T08:21:54;64.10;;;51.50;;
12601;SDS011;30282;16.436;99.370;2023-03-01T08:24:23;62.13;;;51.47;;
12601;SDS011;30282;16.436;99.370;2023-03-01T08:26:53;60.77;;;51.33;;
12601;SDS011;30282;16.436;99.370;2023-03-01T08:29:24;55.53;;;49.53;;
12601;SDS011;30282;16.436;99.370;2023-03-01T08:31:53;56.30;;;49.63;;
12601;SDS011;30282;16.436;99.370;2023-03-01T08:34:22;63.83;;;51.30;;
12601;SDS011;30282;16.436;99.370;2023-03-01T08:36:51;64.40;;;48.03;;
12601;SDS011;30282;16.436;99.370;2023-03-01T08:39:20;56.63;;;50.37;;
12601;SDS011;30282;16.436;99.370;2023-03-01T08:41:49;54.83;;;48.10;;
12601;SDS011;30282;16.436;99.370;2023-03-01T08:44:19;56.60;;;50.50;;
12601;SDS011;30282;16.436;99.370;2023-03-01T08:46:49;56.27;;;49.70;;
12601;SDS011;30282;16.436;99.370;2023-03-01T08:49:21;64.93;;;50.13;;
12601;SDS011;30282;16.436;99.370;2023-03-01T08:51:50;58.33;;;51.90;;
12601;SDS011;30282;16.436;99.370;2023-03-01T08:54:20;71.87;;;48.03;;
12601;SDS011;30282;16.436;99.370;2023-03-01T08:56:50;54.43;;;48.57;;
12601;SDS011;30282;16.436;99.370;2023-03-01T08:59:19;55.73;;;48.20;;
12601;SDS011;30282;16.436;99.370;2023-03-01T09:01:50;59.70;;;47.90;;
12601;SDS011;30282;16.436;99.370;2023-03-01T09:04:19;52.70;;;47.00;;
12601;SDS011;30282;16.436;99.370;2023-03-01T09:06:48;51.10;;;43.60;;
12601;SDS011;30282;16.436;99.370;2023-03-01T09:09:17;48.27;;;41.97;;
12601;SDS011;30282;16.436;99.370;2023-03-01T09:11:46;48.30;;;40.07;;
12601;SDS011;30282;16.436;99.370;2023-03-01T09:14:19;45.33;;;40.53;;
12601;SDS011;30282;16.436;99.370;2023-03-01T09:16:53;48.10;;;42.80;;
12601;SDS011;30282;16.436;99.370;2023-03-01T09:19:23;48.07;;;42.87;;
12601;SDS011;30282;16.436;99.370;2023-03-01T09:21:52;50.17;;;44.73;;
12601;SDS011;30282;16.436;99.370;2023-03-01T09:24:22;65.87;;;42.27;;
12601;SDS011;30282;16.436;99.370;2023-03-01T09:26:53;44.87;;;39.50;;
12601;SDS011;30282;16.436;99.370;2023-03-01T09:29:23;53.17;;;40.83;;
12601;SDS011;30282;16.436;99.370;2023-03-01T09:31:54;52.00;;;39.47;;
12601;SDS011;30282;16.436;99.370;2023-03-01T09:34:23;51.47;;;40.93;;
12601;SDS011;30282;16.436;99.370;2023-03-01T09:36:53;66.50;;;44.10;;
12601;SDS011;30282;16.436;99.370;2023-03-01T09:39:23;59.73;;;47.23;;
12601;SDS011;30282;16.436;99.370;2023-03-01T09:41:55;59.80;;;51.97;;
12601;SDS011;30282;16.436;99.370;2023-03-01T09:44:29;62.10;;;48.90;;
12601;SDS011;30282;16.436;99.370;2023-03-01T09:47:07;106.90;;;49.63;;
12601;SDS011;30282;16.436;99.370;2023-03-01T09:49:55;53.07;;;43.40;;
12601;SDS011;30282;16.436;99.370;2023-03-01T09:52:29;53.80;;;43.33;;
12601;SDS011;30282;16.436;99.370;2023-03-01T09:55:12;57.77;;;42.97;;
12601;SDS011;30282;16.436;99.370;2023-03-01T09:57:45;53.77;;;42.40;;
12601;SDS011;30282;16.436;99.370;2023-03-01T10:03:11;55.97;;;43.23;;
12601;SDS011;30282;16.436;99.370;2023-03-01T10:05:48;58.50;;;43.13;;
12601;SDS011;30282;16.436;99.370;2023-03-01T10:08:27;54.93;;;43.83;;
12601;SDS011;30282;16.436;99.370;2023-03-01T10:11:15;61.90;;;44.90;;
12601;SDS011;30282;16.436;99.370;2023-03-01T10:13:50;61.40;;;49.97;;
12601;SDS011;30282;16.436;99.370;2023-03-01T10:16:27;70.43;;;47.10;;
12601;SDS011;30282;16.436;99.370;2023-03-01T10:19:03;59.57;;;45.00;;
12601;SDS011;30282;16.436;99.370;2023-03-01T10:21:36;58.63;;;43.87;;
12601;SDS011;30282;16.436;99.370;2023-03-01T10:24:13;49.10;;;43.60;;
12601;SDS011;30282;16.436;99.370;2023-03-01T10:26:48;46.50;;;41.50;;
12601;SDS011;30282;16.436;99.370;2023-03-01T10:29:23;51.67;;;44.73;;
12601;SDS011;30282;16.436;99.370;2023-03-01T10:31:58;51.87;;;42.80;;
12601;SDS011;30282;16.436;99.370;2023-03-01T10:34:29;53.73;;;42.07;;
12601;SDS011;30282;16.436;99.370;2023-03-01T10:37:08;72.63;;;46.33;;
12601;SDS011;30282;16.436;99.370;2023-03-01T10:39:54;56.57;;;44.40;;
12601;SDS011;30282;16.436;99.370;2023-03-01T10:42:28;74.93;;;51.13;;
12601;SDS011;30282;16.436;99.370;2023-03-01T10:44:58;69.47;;;48.90;;
12601;SDS011;30282;16.436;99.370;2023-03-01T10:47:57;66.97;;;47.80;;
12601;SDS011;30282;16.436;99.370;2023-03-01T10:50:34;62.50;;;49.07;;
12601;SDS011;30282;16.436;99.370;2023-03-01T10:53:07;58.47;;;47.20;;
12601;SDS011;30282;16.436;99.370;2023-03-01T10:55:49;60.50;;;47.97;;
12601;SDS011;30282;16.436;99.370;2023-03-01T10:58:26;76.00;;;56.00;;
12601;SDS011;30282;16.436;99.370;2023-03-01T11:00:56;66.43;;;54.20;;
12601;SDS011;30282;16.436;99.370;2023-03-01T11:03:27;60.10;;;52.20;;
12601;SDS011;30282;16.436;99.370;2023-03-01T11:06:05;68.40;;;48.23;;
12601;SDS011;30282;16.436;99.370;2023-03-01T11:08:48;76.87;;;48.53;;
12601;SDS011;30282;16.436;99.370;2023-03-01T11:11:29;65.33;;;49.30;;
12601;SDS011;30282;16.436;99.370;2023-03-01T11:14:00;62.97;;;49.90;;
12601;SDS011;30282;16.436;99.370;2023-03-01T11:16:34;75.87;;;49.47;;
12601;SDS011;30282;16.436;99.370;2023-03-01T11:19:14;66.93;;;52.03;;
12601;SDS011;30282;16.436;99.370;2023-03-01T11:21:54;86.80;;;49.20;;
12601;SDS011;30282;16.436;99.370;2023-03-01T11:24:29;71.73;;;51.20;;
12601;SDS011;30282;16.436;99.370;2023-03-01T11:27:03;60.80;;;49.00;;
12601;SDS011;30282;16.436;99.370;2023-03-01T11:29:35;60.83;;;50.10;;
12601;SDS011;30282;16.436;99.370;2023-03-01T11:32:08;68.03;;;47.87;;
12601;SDS011;30282;16.436;99.370;2023-03-01T11:34:42;63.50;;;48.80;;
12601;SDS011;30282;16.436;99.370;2023-03-01T11:37:24;62.37;;;48.20;;
12601;SDS011;30282;16.436;99.370;2023-03-01T11:40:01;64.07;;;46.43;;
12601;SDS011;30282;16.436;99.370;2023-03-01T11:42:43;63.97;;;47.23;;
12601;SDS011;30282;16.436;99.370;2023-03-01T11:45:30;76.07;;;52.20;;
12601;SDS011;30282;16.436;99.370;2023-03-01T11:48:15;67.20;;;48.43;;
12601;SDS011;30282;16.436;99.370;2023-03-01T11:51:07;79.90;;;54.70;;
12601;SDS011;30282;16.436;99.370;2023-03-01T11:53:50;77.20;;;50.10;;
12601;SDS011;30282;16.436;99.370;2023-03-01T11:56:34;81.30;;;53.30;;
12601;SDS011;30282;16.436;99.370;2023-03-01T11:59:15;76.00;;;55.30;;
12601;SDS011;30282;16.436;99.370;2023-03-01T12:07:58;97.47;;;52.33;;
12601;SDS011;30282;16.436;99.370;2023-03-01T12:10:38;96.20;;;54.63;;
12601;SDS011;30282;16.436;99.370;2023-03-01T12:13:22;85.23;;;51.57;;
12601;SDS011;30282;16.436;99.370;2023-03-01T12:16:16;75.20;;;53.73;;
12601;SDS011;30282;16.436;99.370;2023-03-01T12:19:06;78.93;;;53.37;;
12601;SDS011;30282;16.436;99.370;2023-03-01T12:21:47;80.53;;;56.03;;
12601;SDS011;30282;16.436;99.370;2023-03-01T12:24:31;74.30;;;55.13;;
12601;SDS011;30282;16.436;99.370;2023-03-01T12:27:23;137.23;;;54.50;;
12601;SDS011;30282;16.436;99.370;2023-03-01T12:30:17;83.30;;;53.50;;
12601;SDS011;30282;16.436;99.370;2023-03-01T12:32:57;79.00;;;53.37;;
12601;SDS011;30282;16.436;99.370;2023-03-01T12:35:46;119.23;;;62.00;;
12601;SDS011;30282;16.436;99.370;2023-03-01T12:38:38;88.47;;;57.93;;
12601;SDS011;30282;16.436;99.370;2023-03-01T12:41:31;78.80;;;56.57;;
12601;SDS011;30282;16.436;99.370;2023-03-01T12:44:34;87.90;;;60.47;;
12601;SDS011;30282;16.436;99.370;2023-03-01T12:47:20;82.80;;;55.90;;
12601;SDS011;30282;16.436;99.370;2023-03-01T12:49:59;81.17;;;54.90;;
12601;SDS011;30282;16.436;99.370;2023-03-01T12:52:33;87.30;;;57.57;;
12601;SDS011;30282;16.436;99.370;2023-03-01T12:55:08;83.40;;;60.90;;
12601;SDS011;30282;16.436;99.370;2023-03-01T12:57:52;90.80;;;61.07;;
12601;SDS011;30282;16.436;99.370;2023-03-01T13:00:37;114.33;;;60.50;;
12601;SDS011;30282;16.436;99.370;2023-03-01T13:03:18;108.47;;;59.93;;
12601;SDS011;30282;16.436;99.370;2023-03-01T13:05:57;103.03;;;61.73;;
12601;SDS011;30282;16.436;99.370;2023-03-01T13:08:35;120.07;;;59.20;;
12601;SDS011;30282;16.436;99.370;2023-03-01T13:11:11;88.50;;;60.00;;
12601;SDS011;30282;16.436;99.370;2023-03-01T13:13:44;102.07;;;60.73;;
12601;SDS011;30282;16.436;99.370;2023-03-01T13:16:38;88.53;;;61.33;;
12601;SDS011;30282;16.436;99.370;2023-03-01T13:19:12;100.10;;;61.53;;
12601;SDS011;30282;16.436;99.370;2023-03-01T13:21:43;105.63;;;61.07;;
12601;SDS011;30282;16.436;99.370;2023-03-01T13:24:25;87.10;;;63.20;;
12601;SDS011;30282;16.436;99.370;2023-03-01T13:27:18;114.73;;;65.23;;
12601;SDS011;30282;16.436;99.370;2023-03-01T13:29:58;107.37;;;66.13;;
12601;SDS011;30282;16.436;99.370;2023-03-01T13:32:33;111.43;;;64.37;;
12601;SDS011;30282;16.436;99.370;2023-03-01T13:35:08;134.17;;;76.33;;
12601;SDS011;30282;16.436;99.370;2023-03-01T13:41:06;122.07;;;73.17;;
12601;SDS011;30282;16.436;99.370;2023-03-01T13:43:36;109.33;;;65.70;;
12601;SDS011;30282;16.436;99.370;2023-03-01T13:46:10;125.23;;;71.73;;
12601;SDS011;30282;16.436;99.370;2023-03-01T13:48:47;103.70;;;71.93;;
12601;SDS011;30282;16.436;99.370;2023-03-01T13:51:22;108.17;;;73.43;;
12601;SDS011;30282;16.436;99.370;2023-03-01T13:53:53;123.23;;;77.07;;
12601;SDS011;30282;16.436;99.370;2023-03-01T13:56:24;118.83;;;82.03;;
12601;SDS011;30282;16.436;99.370;2023-03-01T13:58:58;129.00;;;82.07;;
12601;SDS011;30282;16.436;99.370;2023-03-01T14:01:30;120.37;;;75.80;;
12601;SDS011;30282;16.436;99.370;2023-03-01T14:04:02;140.93;;;81.47;;
12601;SDS011;30282;16.436;99.370;2023-03-01T14:06:46;117.90;;;77.17;;
12601;SDS011;30282;16.436;99.370;2023-03-01T14:09:16;130.73;;;78.63;;
12601;SDS011;30282;16.436;99.370;2023-03-01T14:12:02;121.50;;;83.33;;
12601;SDS011;30282;16.436;99.370;2023-03-01T14:14:46;119.23;;;73.33;;
12601;SDS011;30282;16.436;99.370;2023-03-01T14:17:24;109.23;;;76.53;;
12601;SDS011;30282;16.436;99.370;2023-03-01T14:20:14;113.63;;;73.60;;
12601;SDS011;30282;16.436;99.370;2023-03-01T14:22:49;133.87;;;76.97;;
12601;SDS011;30282;16.436;99.370;2023-03-01T14:25:21;119.47;;;76.73;;
12601;SDS011;30282;16.436;99.370;2023-03-01T14:27:57;113.73;;;73.00;;
12601;SDS011;30282;16.436;99.370;2023-03-01T14:30:32;114.23;;;77.70;;
12601;SDS011;30282;16.436;99.370;2023-03-01T14:33:06;113.03;;;75.53;;
12601;SDS011;30282;16.436;99.370;2023-03-01T14:35:54;132.43;;;75.07;;
12601;SDS011;30282;16.436;99.370;2023-03-01T14:38:29;127.20;;;79.93;;
12601;SDS011;30282;16.436;99.370;2023-03-01T14:41:05;102.20;;;69.50;;
12601;SDS011;30282;16.436;99.370;2023-03-01T14:43:36;107.60;;;75.47;;
12601;SDS011;30282;16.436;99.370;2023-03-01T14:46:17;121.87;;;79.43;;
12601;SDS011;30282;16.436;99.370;2023-03-01T14:48:49;126.97;;;80.83;;